Huvudsida
METAR-TAF:

METAR-TAF

Flygplatser :

Orsk, Ryssland

latitud: 51-04-18N, longitud: 058-35-48E, höjd: 277 m

Aktuellt väderrapport

Denna rapport gjordes för 56 minuter sedan, klockan 14:00 UTC
Vind 12 kt från nord
Temperatur 18°C
Fuktighet 37%
Tryck 1014 hPa
Sikt 10 km eller mer
Inga moln under 1 500 m eller inga cumulonimbus

METAR: UWOR 201400Z 35006MPS CAVOK 18/03 Q1014 R07/CLRD65 NOSIG RMK QFE736/0981

Tid: 19:56 (14:56 UTC)

Väderprognos

Denna rapport gjordes för 56 minuter sedan, klockan 14:00 UTC
Prognos gäller från 20 kl. 15 UTC till 20 kl. 24 UTC
Vind 14 kt från nord/nordväst i byarna ända upp till 27 kt
Sikt 10 km eller mer
Brutna moln på en höjd av 1100 ft
Temporärt
från 20 kl. 15 UTC till 20 kl. 24 UTC
Vind 10 kt från nordväst i byarna ända upp till 25 kt
Brutna moln på en höjd av 2000 ft, Cumulonimbus.

TAF: UWOR 201400Z 2015/2024 33007G14MPS 9999 BKN011 TEMPO 2015/2024 31005G13MPS BKN020CB

Aktuella väderrapporter och prognoser från 4000 flygplatser (METAR- och TAF-rapporter).

De tillgängliga stationerna syns som gula och röda prickar på kartan.

För musen över prickarna för att se namnen på stationerna.

Klicka sedan för att få väderrapporter och prognoser.

För att ändra kartan: Klicka på de gröna knapparna med ett svart kors på för att zooma in; den gröna knappen med ett streck på för att zooma ut; eller på de gröna pilarna för angränsande kartor.


METAR-TAF: